createdAt,value
2018-02-02T00:01:31.992Z,9.30
2018-02-02T00:03:59.567Z,9.40
2018-02-02T00:06:27.097Z,9.37
2018-02-02T00:08:54.617Z,9.80
2018-02-02T00:11:22.185Z,9.70
2018-02-02T00:13:50.713Z,9.53
2018-02-02T00:16:18.237Z,9.33
2018-02-02T00:18:45.786Z,9.77
2018-02-02T00:21:13.343Z,9.13
2018-02-02T00:23:40.850Z,9.20
2018-02-02T00:26:08.450Z,9.20
2018-02-02T00:28:36.086Z,9.57
2018-02-02T00:31:03.606Z,9.07
2018-02-02T00:33:31.510Z,9.43
2018-02-02T00:35:59.026Z,9.10
2018-02-02T00:38:26.533Z,9.30
2018-02-02T00:40:54.394Z,9.83
2018-02-02T00:43:21.900Z,9.23
2018-02-02T00:45:49.425Z,9.50
2018-02-02T00:48:17.277Z,9.67
2018-02-02T00:50:50.385Z,9.80
2018-02-02T00:53:18.235Z,9.63
2018-02-02T00:55:45.784Z,9.60
2018-02-02T00:58:13.666Z,9.70
2018-02-02T01:00:41.316Z,9.60
2018-02-02T01:03:09.096Z,9.43
2018-02-02T01:05:36.652Z,9.87
2018-02-02T01:08:04.223Z,9.60
2018-02-02T01:10:31.762Z,9.70
2018-02-02T01:12:59.543Z,9.90
2018-02-02T01:15:27.319Z,10.53
2018-02-02T01:17:55.182Z,10.20
2018-02-02T01:20:22.742Z,9.33
2018-02-02T01:22:50.353Z,9.50
2018-02-02T01:25:17.887Z,9.50
2018-02-02T01:27:45.439Z,9.87
2018-02-02T01:30:13.022Z,9.80
2018-02-02T01:32:40.610Z,9.40
2018-02-02T01:35:08.409Z,9.87
2018-02-02T01:37:35.961Z,9.70
2018-02-02T01:40:03.510Z,9.50
2018-02-02T01:42:31.021Z,9.90
2018-02-02T01:44:58.869Z,9.80
2018-02-02T01:47:26.397Z,10.23
2018-02-02T01:49:53.918Z,9.97
2018-02-02T01:52:21.481Z,10.30
2018-02-02T01:54:49.014Z,9.53
2018-02-02T01:57:17.485Z,9.93
2018-02-02T01:59:45.035Z,9.80
2018-02-02T02:02:12.614Z,10.23
2018-02-02T02:04:40.131Z,9.33
2018-02-02T02:07:07.709Z,10.10
2018-02-02T02:09:35.489Z,9.73
2018-02-02T02:12:03.022Z,10.67
2018-02-02T02:14:30.569Z,10.20
2018-02-02T02:16:58.090Z,10.23
2018-02-02T02:19:25.641Z,10.40
2018-02-02T02:21:53.238Z,10.37
2018-02-02T02:24:20.746Z,10.30
2018-02-02T02:26:48.270Z,10.87
2018-02-02T02:29:15.813Z,10.50
2018-02-02T02:31:43.334Z,10.00
2018-02-02T02:34:10.841Z,11.30
2018-02-02T02:36:38.398Z,10.30
2018-02-02T02:39:05.940Z,11.03
2018-02-02T02:41:33.470Z,10.23
2018-02-02T02:44:01.014Z,10.80
2018-02-02T02:46:28.556Z,10.17
2018-02-02T02:48:56.094Z,10.67
2018-02-02T02:51:23.671Z,10.60
2018-02-02T02:53:51.215Z,10.20
2018-02-02T02:56:18.736Z,10.20
2018-02-02T02:58:46.289Z,10.00
2018-02-02T03:01:13.866Z,11.20
2018-02-02T03:03:41.391Z,10.30
2018-02-02T03:06:08.922Z,11.43
2018-02-02T03:08:36.481Z,10.80
2018-02-02T03:11:04.020Z,10.70
2018-02-02T03:13:31.865Z,10.87
2018-02-02T03:15:59.409Z,11.20
2018-02-02T03:18:26.925Z,10.97
2018-02-02T03:20:54.469Z,10.60
2018-02-02T03:23:22.002Z,10.77
2018-02-02T03:25:49.534Z,10.90
2018-02-02T03:28:17.058Z,11.20
2018-02-02T03:30:44.628Z,11.87
2018-02-02T03:33:12.158Z,11.70
2018-02-02T03:35:39.709Z,11.13
2018-02-02T03:38:07.235Z,12.10
2018-02-02T03:40:34.769Z,11.20
2018-02-02T03:43:02.337Z,11.00
2018-02-02T03:45:29.874Z,11.50
2018-02-02T03:47:57.393Z,11.60
2018-02-02T03:50:24.942Z,11.30
2018-02-02T03:52:52.480Z,11.43
2018-02-02T03:55:20.002Z,12.97
2018-02-02T03:57:47.555Z,12.00
2018-02-02T04:00:15.321Z,11.47
2018-02-02T04:02:42.881Z,11.90
2018-02-02T04:05:10.445Z,11.87
2018-02-02T04:07:37.977Z,12.20
2018-02-02T04:10:05.558Z,11.73
2018-02-02T04:12:33.080Z,12.10
2018-02-02T04:15:00.625Z,12.10
2018-02-02T04:17:28.183Z,12.40
2018-02-02T04:19:55.958Z,11.73
2018-02-02T04:22:23.798Z,12.13
2018-02-02T04:24:51.344Z,11.63
2018-02-02T04:27:18.901Z,12.87
2018-02-02T04:29:46.446Z,12.90
2018-02-02T04:32:14.024Z,11.97
2018-02-02T04:34:41.580Z,13.10
2018-02-02T04:37:09.242Z,11.80
2018-02-02T04:39:36.763Z,13.00
2018-02-02T04:42:04.275Z,12.47
2018-02-02T04:44:31.853Z,12.97
2018-02-02T04:46:59.432Z,12.87
2018-02-02T04:49:26.991Z,12.43
2018-02-02T04:51:54.512Z,12.17
2018-02-02T04:54:22.057Z,12.20
2018-02-02T04:56:49.660Z,12.80
2018-02-02T04:59:17.265Z,13.07
2018-02-02T05:01:44.812Z,13.60
2018-02-02T05:04:12.611Z,13.20
2018-02-02T05:06:40.221Z,13.27
2018-02-02T05:09:08.039Z,13.23
2018-02-02T05:11:35.554Z,12.97
2018-02-02T05:14:03.081Z,13.73
2018-02-02T05:16:30.602Z,12.60
2018-02-02T05:18:58.211Z,13.50
2018-02-02T05:21:25.725Z,13.67
2018-02-02T05:23:53.313Z,13.17
2018-02-02T05:26:20.846Z,14.33
2018-02-02T05:28:48.641Z,13.43
2018-02-02T05:31:16.235Z,13.00
2018-02-02T05:33:43.762Z,13.90
2018-02-02T05:36:11.376Z,13.60
2018-02-02T05:38:38.915Z,13.80
2018-02-02T05:41:06.798Z,13.87
2018-02-02T05:43:34.610Z,13.87
2018-02-02T05:46:02.134Z,14.50
2018-02-02T05:48:29.784Z,15.00
2018-02-02T05:50:57.317Z,14.47
2018-02-02T05:53:24.986Z,14.80
2018-02-02T05:55:52.541Z,14.53
2018-02-02T05:58:20.058Z,14.50
2018-02-02T06:00:47.628Z,14.30
2018-02-02T06:03:15.174Z,14.47
2018-02-02T06:05:42.715Z,14.70
2018-02-02T06:08:10.630Z,14.37
2018-02-02T06:10:38.133Z,15.40
2018-02-02T06:13:05.723Z,14.83
2018-02-02T06:15:33.289Z,14.73
2018-02-02T06:18:00.842Z,14.70
2018-02-02T06:20:28.408Z,14.73
2018-02-02T06:22:56.177Z,14.77
2018-02-02T06:25:25.038Z,14.77
2018-02-02T06:27:52.690Z,15.20
2018-02-02T06:30:20.235Z,14.20
2018-02-02T06:32:47.814Z,15.53
2018-02-02T06:35:15.362Z,15.50
2018-02-02T06:37:42.902Z,14.53
2018-02-02T06:40:10.474Z,15.47
2018-02-02T06:42:38.007Z,15.17
2018-02-02T06:45:05.558Z,14.37
2018-02-02T06:47:33.081Z,14.40
2018-02-02T06:50:00.634Z,15.20
2018-02-02T06:52:28.161Z,14.93
2018-02-02T06:54:56.011Z,16.83
2018-02-02T06:57:23.588Z,15.63
2018-02-02T06:59:51.443Z,14.23
2018-02-02T07:02:18.983Z,14.37
2018-02-02T07:04:46.514Z,15.70
2018-02-02T07:07:14.433Z,13.93
2018-02-02T07:09:42.227Z,14.97
2018-02-02T07:12:09.768Z,14.23
2018-02-02T07:14:37.362Z,14.37
2018-02-02T07:17:04.881Z,15.80
2018-02-02T07:19:32.454Z,14.83
2018-02-02T07:22:00.056Z,14.83
2018-02-02T07:24:27.680Z,15.23
2018-02-02T07:26:55.241Z,14.23
2018-02-02T07:29:23.040Z,13.90
2018-02-02T07:31:51.284Z,13.97
2018-02-02T07:34:18.944Z,14.83
2018-02-02T07:36:46.482Z,15.83
2018-02-02T07:39:14.362Z,15.07
2018-02-02T07:41:42.386Z,13.97
2018-02-02T07:44:09.948Z,14.30
2018-02-02T07:46:37.475Z,13.93
2018-02-02T07:49:05.194Z,14.33
2018-02-02T07:51:32.762Z,13.23
2018-02-02T07:54:00.283Z,13.90
2018-02-02T07:56:27.855Z,13.47
2018-02-02T07:58:55.383Z,13.20
2018-02-02T08:01:22.987Z,13.10
2018-02-02T08:03:50.512Z,13.13
2018-02-02T08:06:18.130Z,14.17
2018-02-02T08:08:45.974Z,14.50
2018-02-02T08:11:13.787Z,12.93
2018-02-02T08:13:41.394Z,12.87
2018-02-02T08:16:08.935Z,12.93
2018-02-02T08:18:36.479Z,13.30
2018-02-02T08:21:04.234Z,13.33
2018-02-02T08:23:31.789Z,13.37
2018-02-02T08:25:59.308Z,12.47
2018-02-02T08:28:27.062Z,13.10
2018-02-02T08:30:54.620Z,12.83
2018-02-02T08:33:22.257Z,12.20
2018-02-02T08:35:50.100Z,12.63
2018-02-02T08:38:17.937Z,13.10
2018-02-02T08:40:45.729Z,13.53
2018-02-02T08:43:13.236Z,12.57
2018-02-02T08:45:40.807Z,12.30
2018-02-02T08:48:08.350Z,12.10
2018-02-02T08:50:35.892Z,12.27
2018-02-02T08:53:03.420Z,12.63
2018-02-02T08:55:31.312Z,12.33
2018-02-02T08:57:59.174Z,12.47
2018-02-02T09:00:26.786Z,11.30
2018-02-02T09:02:54.607Z,11.53
2018-02-02T09:05:22.158Z,11.57
2018-02-02T09:07:49.684Z,11.70
2018-02-02T09:10:17.487Z,12.60
2018-02-02T09:12:45.028Z,11.27
2018-02-02T09:15:12.568Z,12.03
2018-02-02T09:17:40.122Z,11.83
2018-02-02T09:20:07.760Z,11.40
2018-02-02T09:22:35.288Z,12.83
2018-02-02T09:25:03.155Z,11.80
2018-02-02T09:27:30.914Z,12.63
2018-02-02T09:29:58.480Z,11.93
2018-02-02T09:32:26.007Z,11.50
2018-02-02T09:34:53.549Z,12.00
2018-02-02T09:37:21.062Z,11.90
2018-02-02T09:39:48.602Z,12.27
2018-02-02T09:42:16.199Z,11.80
2018-02-02T09:44:43.758Z,11.70
2018-02-02T09:47:11.276Z,11.57
2018-02-02T09:49:38.802Z,11.87
2018-02-02T09:52:06.361Z,11.83
2018-02-02T09:54:33.869Z,11.93
2018-02-02T09:57:01.453Z,11.30
2018-02-02T09:59:29.141Z,11.63
2018-02-02T10:01:57.350Z,11.80
2018-02-02T10:04:25.150Z,11.00
2018-02-02T10:06:52.917Z,11.27
2018-02-02T10:09:20.463Z,11.03
2018-02-02T10:11:48.347Z,11.10
2018-02-02T10:14:15.926Z,10.97
2018-02-02T10:16:43.499Z,10.80
2018-02-02T10:19:11.042Z,11.23
2018-02-02T10:21:38.630Z,11.43
2018-02-02T10:24:07.499Z,11.30
2018-02-02T10:26:35.053Z,11.37
2018-02-02T10:29:02.590Z,11.80
2018-02-02T10:31:30.172Z,11.00
2018-02-02T10:33:57.929Z,11.17
2018-02-02T10:36:25.592Z,10.80
2018-02-02T10:38:53.125Z,11.87
2018-02-02T10:41:20.698Z,11.00
2018-02-02T10:43:48.233Z,10.80
2018-02-02T10:46:15.775Z,10.70
2018-02-02T10:48:43.314Z,11.40
2018-02-02T10:51:10.843Z,12.50
2018-02-02T10:53:38.394Z,10.60
2018-02-02T10:56:05.996Z,11.20
2018-02-02T10:58:33.559Z,12.10
2018-02-02T11:01:06.752Z,10.90
2018-02-02T11:03:34.853Z,10.50
2018-02-02T11:06:02.580Z,10.90
2018-02-02T11:08:30.146Z,10.73
2018-02-02T11:10:57.709Z,10.97
2018-02-02T11:13:25.383Z,11.10
2018-02-02T11:15:53.024Z,12.43
2018-02-02T11:18:20.545Z,11.37
2018-02-02T11:20:48.346Z,10.77
2018-02-02T11:23:16.212Z,10.63
2018-02-02T11:25:43.779Z,11.30
2018-02-02T11:28:11.503Z,11.07
2018-02-02T11:30:39.029Z,10.63
2018-02-02T11:33:06.740Z,11.03
2018-02-02T11:35:34.346Z,11.03
2018-02-02T11:38:01.924Z,10.80
2018-02-02T11:40:29.669Z,11.03
2018-02-02T11:42:57.508Z,11.03
2018-02-02T11:45:25.487Z,10.77
2018-02-02T11:47:53.071Z,11.03
2018-02-02T11:50:20.907Z,10.73
2018-02-02T11:52:48.421Z,11.30
2018-02-02T11:55:16.351Z,11.03
2018-02-02T11:57:43.873Z,10.70
2018-02-02T12:00:11.445Z,10.60
2018-02-02T12:02:38.994Z,11.00
2018-02-02T12:05:06.498Z,11.03
2018-02-02T12:07:34.084Z,11.17
2018-02-02T12:10:01.608Z,10.50
2018-02-02T12:12:29.317Z,11.33
2018-02-02T12:14:56.882Z,11.40
2018-02-02T12:17:24.482Z,11.10
2018-02-02T12:19:54.306Z,11.20
2018-02-02T12:22:27.408Z,10.63
2018-02-02T12:28:01.569Z,11.07
2018-02-02T12:30:43.993Z,10.50
2018-02-02T12:33:16.205Z,10.20
2018-02-02T12:35:49.149Z,10.63
2018-02-02T12:38:16.763Z,11.13
2018-02-02T12:40:44.359Z,11.17
2018-02-02T12:43:11.928Z,10.87
2018-02-02T12:45:39.428Z,11.20
2018-02-02T12:48:11.890Z,11.40
2018-02-02T12:50:51.174Z,11.77
2018-02-02T12:53:18.760Z,11.17
2018-02-02T12:55:46.577Z,10.53
2018-02-02T12:58:14.454Z,11.10
2018-02-02T13:00:42.032Z,11.20
2018-02-02T13:03:09.547Z,11.70
2018-02-02T13:05:37.115Z,11.30
2018-02-02T13:08:04.636Z,10.40
2018-02-02T13:10:32.190Z,10.70
2018-02-02T13:12:59.726Z,10.77
2018-02-02T13:15:27.589Z,10.37
2018-02-02T13:17:55.223Z,10.73
2018-02-02T13:20:22.748Z,11.30
2018-02-02T13:22:50.320Z,10.80
2018-02-02T13:25:17.840Z,10.70
2018-02-02T13:27:45.416Z,11.10
2018-02-02T13:30:12.935Z,10.20
2018-02-02T13:32:40.543Z,10.50
2018-02-02T13:35:08.065Z,10.20
2018-02-02T13:37:35.621Z,10.53
2018-02-02T13:40:03.142Z,10.30
2018-02-02T13:42:30.767Z,10.37
2018-02-02T13:44:58.302Z,10.70
2018-02-02T13:47:25.857Z,10.40
2018-02-02T13:49:53.441Z,10.43
2018-02-02T13:52:20.975Z,10.20
2018-02-02T13:54:48.509Z,10.13
2018-02-02T13:57:16.319Z,10.63
2018-02-02T13:59:43.857Z,10.30
2018-02-02T14:02:11.642Z,10.47
2018-02-02T14:04:39.219Z,9.80
2018-02-02T14:07:06.744Z,10.70
2018-02-02T14:09:34.408Z,10.27
2018-02-02T14:12:02.187Z,10.60
2018-02-02T14:14:29.874Z,11.10
2018-02-02T14:16:57.445Z,10.37
2018-02-02T14:19:24.966Z,10.80
2018-02-02T14:21:52.493Z,10.47
2018-02-02T14:24:20.012Z,10.83
2018-02-02T14:26:47.572Z,9.97
2018-02-02T14:29:15.353Z,10.30
2018-02-02T14:31:43.058Z,12.23
2018-02-02T14:34:10.614Z,10.87
2018-02-02T14:36:38.226Z,10.53
2018-02-02T14:39:05.786Z,10.73
2018-02-02T14:41:33.322Z,10.03
2018-02-02T14:44:01.047Z,10.73
2018-02-02T14:46:28.606Z,11.33
2018-02-02T14:48:56.167Z,11.13
2018-02-02T14:51:23.986Z,11.03
2018-02-02T14:53:51.556Z,10.33
2018-02-02T14:56:19.114Z,11.57
2018-02-02T14:58:46.976Z,10.73
2018-02-02T15:01:14.500Z,10.60
2018-02-02T15:03:42.400Z,11.60
2018-02-02T15:06:09.954Z,11.07
2018-02-02T15:08:37.508Z,10.83
2018-02-02T15:11:05.036Z,10.80
2018-02-02T15:13:32.614Z,11.60
2018-02-02T15:16:00.145Z,11.40
2018-02-02T15:18:27.749Z,12.37
2018-02-02T15:20:55.528Z,11.60
2018-02-02T15:23:23.114Z,11.20
2018-02-02T15:25:50.698Z,10.83
2018-02-02T15:28:18.514Z,11.30
2018-02-02T15:30:46.061Z,10.70
2018-02-02T15:33:13.586Z,11.53
2018-02-02T15:35:41.634Z,11.80
2018-02-02T15:38:09.380Z,11.67
2018-02-02T15:40:36.965Z,11.10
2018-02-02T15:43:04.483Z,11.67
2018-02-02T15:45:31.997Z,12.30
2018-02-02T15:47:59.577Z,11.33
2018-02-02T15:50:27.113Z,11.20
2018-02-02T15:52:54.667Z,11.40
2018-02-02T15:55:22.504Z,12.50
2018-02-02T15:57:50.078Z,11.53
2018-02-02T16:00:17.663Z,12.30
2018-02-02T16:02:45.214Z,12.70
2018-02-02T16:05:12.806Z,12.33
2018-02-02T16:07:40.353Z,11.13
2018-02-02T16:10:07.914Z,11.70
2018-02-02T16:12:35.458Z,12.50
2018-02-02T16:15:03.030Z,11.90
2018-02-02T16:17:30.559Z,11.40
2018-02-02T16:19:58.131Z,11.40
2018-02-02T16:22:25.686Z,11.63
2018-02-02T16:24:53.534Z,11.10
2018-02-02T16:27:21.165Z,11.53
2018-02-02T16:29:48.709Z,12.33
2018-02-02T16:32:16.246Z,11.53
2018-02-02T16:34:43.767Z,11.80
2018-02-02T16:37:11.293Z,11.63
2018-02-02T16:39:39.209Z,11.90
2018-02-02T16:42:06.827Z,11.63
2018-02-02T16:44:34.392Z,12.53
2018-02-02T16:47:01.905Z,12.20
2018-02-02T16:49:29.446Z,12.07
2018-02-02T16:51:56.976Z,12.33
2018-02-02T16:54:24.583Z,12.60
2018-02-02T16:56:52.441Z,12.10
2018-02-02T16:59:20.010Z,12.50
2018-02-02T17:01:47.866Z,12.43
2018-02-02T17:04:15.541Z,12.40
2018-02-02T17:06:43.181Z,12.73
2018-02-02T17:09:10.950Z,12.57
2018-02-02T17:11:38.550Z,12.70
2018-02-02T17:14:06.148Z,12.67
2018-02-02T17:16:33.728Z,13.03
2018-02-02T17:19:01.358Z,12.37
2018-02-02T17:21:28.912Z,13.67
2018-02-02T17:23:56.434Z,13.50
2018-02-02T17:26:23.972Z,13.70
2018-02-02T17:28:51.543Z,13.33
2018-02-02T17:31:19.220Z,13.07
2018-02-02T17:33:46.796Z,13.93
2018-02-02T17:36:14.328Z,12.83
2018-02-02T17:38:41.952Z,13.20
2018-02-02T17:41:09.487Z,13.73
2018-02-02T17:43:36.997Z,13.97
2018-02-02T17:46:04.881Z,15.00
2018-02-02T17:48:32.601Z,14.37
2018-02-02T17:51:00.141Z,14.80
2018-02-02T17:53:27.989Z,14.30
2018-02-02T17:55:55.575Z,15.23
2018-02-02T17:58:23.219Z,15.03
2018-02-02T18:00:53.345Z,14.30
2018-02-02T18:03:20.886Z,15.13
2018-02-02T18:05:48.428Z,14.43
2018-02-02T18:08:16.438Z,14.77
2018-02-02T18:10:43.968Z,14.70
2018-02-02T18:13:11.526Z,15.07
2018-02-02T18:15:39.043Z,14.23
2018-02-02T18:18:06.604Z,15.20
2018-02-02T18:20:34.152Z,14.37
2018-02-02T18:23:01.674Z,14.60
2018-02-02T18:25:29.230Z,14.50
2018-02-02T18:27:56.746Z,13.67
2018-02-02T18:30:24.294Z,14.80
2018-02-02T18:32:52.116Z,14.53
2018-02-02T18:35:19.663Z,14.50
2018-02-02T18:37:47.194Z,15.00
2018-02-02T18:40:14.712Z,14.47
2018-02-02T18:42:42.262Z,14.90
2018-02-02T18:45:09.861Z,15.00
2018-02-02T18:47:37.415Z,13.77
2018-02-02T18:50:04.945Z,14.77
2018-02-02T18:52:32.917Z,14.67
2018-02-02T18:55:00.427Z,15.00
2018-02-02T18:57:28.234Z,15.03
2018-02-02T18:59:55.787Z,14.70
2018-02-02T19:02:23.319Z,14.37
2018-02-02T19:04:50.881Z,14.20
2018-02-02T19:07:18.442Z,14.50
2018-02-02T19:09:46.060Z,15.77
2018-02-02T19:12:13.633Z,15.60
2018-02-02T19:14:41.439Z,13.90
2018-02-02T19:17:08.987Z,14.80
2018-02-02T19:19:36.801Z,14.03
2018-02-02T19:22:04.338Z,13.80
2018-02-02T19:24:31.949Z,14.23
2018-02-02T19:26:59.489Z,14.17
2018-02-02T19:29:27.032Z,14.60
2018-02-02T19:31:54.565Z,13.67
2018-02-02T19:34:22.097Z,13.90
2018-02-02T19:36:49.684Z,14.40
2018-02-02T19:39:17.252Z,14.90
2018-02-02T19:41:44.797Z,14.57
2018-02-02T19:44:12.392Z,15.33
2018-02-02T19:46:40.022Z,13.83
2018-02-02T19:49:07.659Z,14.30
2018-02-02T19:51:35.221Z,14.27
2018-02-02T19:54:02.778Z,14.30
2018-02-02T19:56:30.622Z,14.73
2018-02-02T19:58:58.398Z,14.20
2018-02-02T20:01:25.987Z,14.60
2018-02-02T20:03:54.247Z,14.70
2018-02-02T20:06:21.893Z,14.13
2018-02-02T20:08:50.723Z,14.17
2018-02-02T20:11:18.335Z,15.20
2018-02-02T20:13:46.198Z,16.00
2018-02-02T20:16:13.782Z,14.70
2018-02-02T20:18:41.348Z,14.50
2018-02-02T20:21:08.903Z,14.30
2018-02-02T20:23:36.452Z,15.77
2018-02-02T20:26:03.977Z,14.93
2018-02-02T20:28:31.517Z,14.30
2018-02-02T20:30:59.056Z,14.43
2018-02-02T20:33:26.617Z,15.10
2018-02-02T20:35:54.162Z,15.93
2018-02-02T20:38:22.011Z,15.60
2018-02-02T20:40:49.621Z,14.50
2018-02-02T20:43:17.183Z,14.93
2018-02-02T20:45:44.825Z,14.33
2018-02-02T20:48:12.405Z,14.60
2018-02-02T20:50:40.037Z,15.37
2018-02-02T20:53:07.592Z,15.33
2018-02-02T20:55:35.167Z,15.37
2018-02-02T20:58:02.721Z,15.00
2018-02-02T21:00:30.267Z,14.73
2018-02-02T21:02:57.837Z,15.40
2018-02-02T21:05:25.376Z,15.23
2018-02-02T21:07:52.916Z,15.93
2018-02-02T21:10:20.614Z,14.77
2018-02-02T21:12:48.161Z,15.80
2018-02-02T21:15:15.684Z,15.00
2018-02-02T21:17:43.306Z,14.83
2018-02-02T21:20:10.874Z,14.53
2018-02-02T21:22:38.419Z,14.70
2018-02-02T21:25:05.961Z,16.00
2018-02-02T21:27:33.507Z,14.17
2018-02-02T21:30:01.031Z,15.73
2018-02-02T21:32:28.563Z,15.73
2018-02-02T21:34:56.100Z,14.73
2018-02-02T21:37:23.768Z,15.30
2018-02-02T21:39:51.321Z,16.00
2018-02-02T21:42:19.098Z,14.30
2018-02-02T21:44:46.663Z,15.67
2018-02-02T21:47:14.530Z,16.20
2018-02-02T21:49:42.082Z,16.20
2018-02-02T21:52:09.862Z,16.70
2018-02-02T21:54:37.381Z,16.40
2018-02-02T21:57:05.014Z,15.80
2018-02-02T21:59:32.621Z,16.13
2018-02-02T22:02:00.188Z,16.10
2018-02-02T22:04:27.748Z,16.20
2018-02-02T22:06:55.310Z,15.93
2018-02-02T22:09:22.972Z,16.23
2018-02-02T22:11:50.603Z,16.20
2018-02-02T22:14:18.190Z,16.70
2018-02-02T22:16:46.080Z,15.83
2018-02-02T22:19:13.945Z,16.60
2018-02-02T22:21:41.521Z,15.33
2018-02-02T22:24:09.065Z,16.17
2018-02-02T22:26:36.838Z,16.40
2018-02-02T22:29:04.362Z,16.30
2018-02-02T22:31:31.907Z,17.00
2018-02-02T22:33:59.528Z,17.13
2018-02-02T22:36:27.079Z,15.73
2018-02-02T22:38:54.592Z,16.23
2018-02-02T22:41:22.170Z,16.07
2018-02-02T22:43:49.741Z,16.57
2018-02-02T22:46:17.271Z,15.73
2018-02-02T22:48:44.835Z,15.97
2018-02-02T22:51:12.350Z,15.87
2018-02-02T22:53:39.882Z,16.50
2018-02-02T22:56:07.428Z,16.57
2018-02-02T22:58:34.971Z,17.03
2018-02-02T23:01:02.509Z,16.03
2018-02-02T23:03:30.047Z,16.37
2018-02-02T23:05:57.586Z,17.63
2018-02-02T23:08:25.109Z,15.77
2018-02-02T23:10:52.931Z,16.90
2018-02-02T23:13:20.791Z,17.33
2018-02-02T23:15:48.288Z,16.27
2018-02-02T23:18:16.124Z,16.33
2018-02-02T23:20:43.885Z,15.70
2018-02-02T23:23:11.420Z,16.10
2018-02-02T23:25:38.985Z,16.43
2018-02-02T23:28:06.518Z,16.40
2018-02-02T23:30:34.334Z,15.50
2018-02-02T23:33:01.921Z,15.70
2018-02-02T23:35:29.762Z,16.73
2018-02-02T23:37:57.288Z,16.70
2018-02-02T23:40:24.827Z,16.20
2018-02-02T23:42:52.650Z,16.70
2018-02-02T23:45:20.470Z,15.93
2018-02-02T23:47:47.983Z,17.33
2018-02-02T23:50:15.541Z,17.07
2018-02-02T23:52:43.299Z,16.80
2018-02-02T23:55:11.193Z,16.63
2018-02-02T23:57:38.702Z,16.93
